createdAt,value
2018-08-08T00:01:49.422Z,61.78
2018-08-08T00:04:24.100Z,61.25
2018-08-08T00:06:50.998Z,61.07
2018-08-08T00:09:17.975Z,60.34
2018-08-08T00:11:44.960Z,61.57
2018-08-08T00:14:11.904Z,61.96
2018-08-08T00:16:38.838Z,62.46
2018-08-08T00:19:05.807Z,63.94
2018-08-08T00:21:32.796Z,63.92
2018-08-08T00:23:59.695Z,64.69
2018-08-08T00:26:26.649Z,64.27
2018-08-08T00:28:53.614Z,64.48
2018-08-08T00:31:20.569Z,64.19
2018-08-08T00:33:47.541Z,64.15
2018-08-08T00:36:14.498Z,62.53
2018-08-08T00:38:41.581Z,63.18
2018-08-08T00:41:09.022Z,64.16
2018-08-08T00:43:36.602Z,64.18
2018-08-08T00:46:03.587Z,64.91
2018-08-08T00:48:31.114Z,65.45
2018-08-08T00:51:06.289Z,66.00
2018-08-08T00:53:36.661Z,66.28
2018-08-08T00:56:03.566Z,65.90
2018-08-08T00:58:30.490Z,64.55
2018-08-08T01:00:57.484Z,64.71
2018-08-08T01:03:24.442Z,65.65
2018-08-08T01:05:51.593Z,64.34
2018-08-08T01:08:18.601Z,66.09
2018-08-08T01:10:45.530Z,68.29
2018-08-08T01:13:12.493Z,69.71
2018-08-08T01:15:39.437Z,71.52
2018-08-08T01:18:06.394Z,70.59
2018-08-08T01:20:36.385Z,72.81
2018-08-08T01:23:03.274Z,72.09
2018-08-08T01:25:30.230Z,72.24
2018-08-08T01:27:57.182Z,70.79
2018-08-08T01:30:24.142Z,70.21
2018-08-08T01:33:06.089Z,70.16
2018-08-08T01:35:35.473Z,69.16
2018-08-08T01:38:03.149Z,68.83
2018-08-08T01:40:30.108Z,69.16
2018-08-08T01:42:57.713Z,68.83
2018-08-08T01:45:27.106Z,69.31
2018-08-08T01:47:53.941Z,69.26
2018-08-08T01:50:20.897Z,69.26
2018-08-08T01:52:47.865Z,68.52
2018-08-08T01:55:15.133Z,69.63
2018-08-08T01:57:42.119Z,69.74
2018-08-08T02:00:12.579Z,67.34
2018-08-08T02:02:40.302Z,68.75
2018-08-08T02:05:07.662Z,69.31
2018-08-08T02:07:34.614Z,69.50
2018-08-08T02:10:01.586Z,70.21
2018-08-08T02:12:28.559Z,70.44
2018-08-08T02:14:55.462Z,69.67
2018-08-08T02:17:22.352Z,70.47
2018-08-08T02:19:50.553Z,70.32
2018-08-08T02:22:18.297Z,68.75
2018-08-08T02:24:46.558Z,69.61
2018-08-08T02:27:15.058Z,69.29
2018-08-08T02:29:44.545Z,68.56
2018-08-08T02:32:19.767Z,68.78
2018-08-08T02:34:47.649Z,68.94
2018-08-08T02:37:14.624Z,68.30
2018-08-08T02:39:42.220Z,68.29
2018-08-08T02:42:09.129Z,68.15
2018-08-08T02:44:36.083Z,67.24
2018-08-08T02:47:03.023Z,67.40
2018-08-08T02:49:29.898Z,66.38
2018-08-08T02:51:57.683Z,65.81
2018-08-08T02:54:24.630Z,65.66
2018-08-08T02:56:51.587Z,65.49
2018-08-08T02:59:18.546Z,66.12
2018-08-08T03:01:45.512Z,66.86
2018-08-08T03:04:12.490Z,66.49
2018-08-08T03:06:39.431Z,67.27
2018-08-08T03:09:07.767Z,66.85
2018-08-08T03:11:35.873Z,66.82
2018-08-08T03:14:03.725Z,67.23
2018-08-08T03:16:31.662Z,67.03
2018-08-08T03:18:58.634Z,66.64
2018-08-08T03:21:25.582Z,66.85
2018-08-08T03:23:52.529Z,65.69
2018-08-08T03:26:19.510Z,64.84
2018-08-08T03:28:46.450Z,64.79
2018-08-08T03:31:16.382Z,64.17
2018-08-08T03:33:43.338Z,63.03
2018-08-08T03:36:14.592Z,61.24
2018-08-08T03:38:43.262Z,59.94
2018-08-08T03:41:14.461Z,58.47
2018-08-08T03:43:50.350Z,56.87
2018-08-08T03:46:21.640Z,56.48
2018-08-08T03:48:48.525Z,55.55
2018-08-08T03:51:18.244Z,54.61
2018-08-08T03:53:45.178Z,55.00
2018-08-08T03:56:12.078Z,54.85
2018-08-08T03:58:40.398Z,54.32
2018-08-08T04:01:07.332Z,54.34
2018-08-08T04:03:34.414Z,54.59
2018-08-08T04:06:01.331Z,54.36
2018-08-08T04:08:28.282Z,54.82
2018-08-08T04:10:56.905Z,54.69
2018-08-08T04:13:23.096Z,55.32
2018-08-08T04:15:49.969Z,56.00
2018-08-08T04:18:16.938Z,55.66
2018-08-08T04:20:43.905Z,55.85
2018-08-08T04:23:10.886Z,55.84
2018-08-08T04:25:37.834Z,55.99
2018-08-08T04:28:05.606Z,55.04
2018-08-08T04:30:33.627Z,56.16
2018-08-08T04:33:00.538Z,56.87
2018-08-08T04:35:27.481Z,56.88
2018-08-08T04:37:55.269Z,56.59
2018-08-08T04:40:22.743Z,57.55
2018-08-08T04:42:49.737Z,57.72
2018-08-08T04:45:16.960Z,58.06
2018-08-08T04:47:44.329Z,58.80
2018-08-08T04:50:11.322Z,58.64
2018-08-08T04:52:38.292Z,60.29
2018-08-08T04:55:06.410Z,59.90
2018-08-08T04:57:33.521Z,60.13
2018-08-08T05:00:00.432Z,60.79
2018-08-08T05:02:27.421Z,60.20
2018-08-08T05:04:55.588Z,60.88
2018-08-08T05:07:23.522Z,60.11
2018-08-08T05:09:50.406Z,60.18
2018-08-08T05:12:18.278Z,61.28
2018-08-08T05:14:45.274Z,61.30
2018-08-08T05:17:12.188Z,60.26
2018-08-08T05:19:39.118Z,60.63
2018-08-08T05:22:06.088Z,60.80
2018-08-08T05:24:33.005Z,60.70
2018-08-08T05:26:59.958Z,60.26
2018-08-08T05:29:29.878Z,61.75
2018-08-08T05:31:56.817Z,61.16
2018-08-08T05:34:24.516Z,60.30
2018-08-08T05:36:51.462Z,59.92
2018-08-08T05:39:18.399Z,60.17
2018-08-08T05:41:45.368Z,60.25
2018-08-08T05:44:12.326Z,59.77
2018-08-08T05:46:40.326Z,60.42
2018-08-08T05:49:07.630Z,59.37
2018-08-08T05:51:35.249Z,58.44
2018-08-08T05:54:02.497Z,58.09
2018-08-08T05:56:29.493Z,57.73
2018-08-08T05:58:56.477Z,56.88
2018-08-08T06:01:23.358Z,57.11
2018-08-08T06:03:51.379Z,56.37
2018-08-08T06:06:19.253Z,56.07
2018-08-08T06:08:47.854Z,56.55
2018-08-08T06:11:14.810Z,57.40
2018-08-08T06:13:41.758Z,57.32
2018-08-08T06:16:09.346Z,57.49
2018-08-08T06:18:36.707Z,58.20
2018-08-08T06:21:08.046Z,58.55
2018-08-08T06:23:36.491Z,57.85
2018-08-08T06:26:03.459Z,56.83
2018-08-08T06:28:30.363Z,57.68
2018-08-08T06:30:57.321Z,56.64
2018-08-08T06:33:26.338Z,56.22
2018-08-08T06:35:53.297Z,56.64
2018-08-08T06:38:23.913Z,56.77
2018-08-08T06:40:50.889Z,57.55
2018-08-08T06:43:18.108Z,57.96
2018-08-08T06:45:45.805Z,58.55
2018-08-08T06:48:12.806Z,59.44
2018-08-08T06:50:39.754Z,59.83
2018-08-08T06:53:08.864Z,60.19
2018-08-08T06:55:36.338Z,61.21
2018-08-08T06:58:03.274Z,58.70
2018-08-08T07:00:30.629Z,58.69
2018-08-08T07:02:57.706Z,56.90
2018-08-08T07:05:24.695Z,58.16
2018-08-08T07:07:52.334Z,56.04
2018-08-08T07:10:19.307Z,54.46
2018-08-08T07:12:46.278Z,53.90
2018-08-08T07:15:14.425Z,53.31
2018-08-08T07:17:41.370Z,54.73
2018-08-08T07:20:09.829Z,53.95
2018-08-08T07:22:36.987Z,53.28
2018-08-08T07:25:27.117Z,54.19
2018-08-08T07:27:54.009Z,53.21
2018-08-08T07:30:20.975Z,53.24
2018-08-08T07:32:48.861Z,51.48
2018-08-08T07:35:15.822Z,51.03
2018-08-08T07:37:43.774Z,51.96
2018-08-08T07:40:12.113Z,49.53
2018-08-08T07:42:40.358Z,49.37
2018-08-08T07:45:13.069Z,51.96
2018-08-08T07:47:40.006Z,50.56
2018-08-08T07:50:08.341Z,50.85
2018-08-08T07:52:35.253Z,49.56
2018-08-08T07:55:03.414Z,49.37
2018-08-08T07:57:30.421Z,48.68
2018-08-08T07:59:57.361Z,49.13
2018-08-08T08:02:24.315Z,49.69
2018-08-08T08:04:51.317Z,46.81
2018-08-08T08:07:18.281Z,46.15
2018-08-08T08:09:45.204Z,46.58
2018-08-08T08:12:12.338Z,47.19
2018-08-08T08:14:39.306Z,46.88
2018-08-08T08:17:08.130Z,46.10
2018-08-08T08:19:35.169Z,47.61
2018-08-08T08:22:02.245Z,47.18
2018-08-08T08:24:29.197Z,47.57
2018-08-08T08:26:56.130Z,46.92
2018-08-08T08:29:23.125Z,47.61
2018-08-08T08:31:50.094Z,46.52
2018-08-08T08:34:17.401Z,47.50
2018-08-08T08:36:44.946Z,45.98
2018-08-08T08:39:12.063Z,44.90
2018-08-08T08:41:39.150Z,47.96
2018-08-08T08:44:06.142Z,45.60
2018-08-08T08:46:33.025Z,44.89
2018-08-08T08:49:01.115Z,45.49
2018-08-08T08:51:39.265Z,44.39
2018-08-08T08:54:07.025Z,43.27
2018-08-08T08:56:37.326Z,44.49
2018-08-08T08:59:04.321Z,43.91
2018-08-08T09:01:32.334Z,45.32
2018-08-08T09:03:59.270Z,44.75
2018-08-08T09:06:26.894Z,45.00
2018-08-08T09:08:53.792Z,44.53
2018-08-08T09:11:20.785Z,45.44
2018-08-08T09:13:50.250Z,44.04
2018-08-08T09:16:21.164Z,43.60
2018-08-08T09:18:49.691Z,43.74
2018-08-08T09:21:18.894Z,43.60
2018-08-08T09:23:46.103Z,42.26
2018-08-08T09:26:12.810Z,40.82
2018-08-08T09:28:41.437Z,41.36
2018-08-08T09:31:08.390Z,42.54
2018-08-08T09:33:35.767Z,43.76
2018-08-08T09:36:03.745Z,41.71
2018-08-08T09:38:31.006Z,40.93
2018-08-08T09:40:57.990Z,40.65
2018-08-08T09:43:24.962Z,39.32
2018-08-08T09:45:51.877Z,39.05
2018-08-08T09:48:18.922Z,40.46
2018-08-08T09:50:45.950Z,40.24
2018-08-08T09:53:13.990Z,40.90
2018-08-08T09:55:40.926Z,40.13
2018-08-08T09:58:07.888Z,39.83
2018-08-08T10:00:40.489Z,38.34
2018-08-08T10:03:11.319Z,38.52
2018-08-08T10:05:39.641Z,39.64
2018-08-08T10:08:06.596Z,38.15
2018-08-08T10:10:33.586Z,38.11
2018-08-08T10:13:00.478Z,36.25
2018-08-08T10:15:27.973Z,35.88
2018-08-08T10:17:54.955Z,37.84
2018-08-08T10:20:21.916Z,37.02
2018-08-08T10:22:48.854Z,35.88
2018-08-08T10:25:15.797Z,36.86
2018-08-08T10:27:42.743Z,36.19
2018-08-08T10:30:09.697Z,35.89
2018-08-08T10:32:37.790Z,36.18
2018-08-08T10:35:05.695Z,36.99
2018-08-08T10:37:32.613Z,36.05
2018-08-08T10:39:59.587Z,37.16
2018-08-08T10:42:26.574Z,36.86
2018-08-08T10:44:57.698Z,37.99
2018-08-08T10:47:26.130Z,37.00
2018-08-08T10:49:53.924Z,36.72
2018-08-08T10:52:21.507Z,36.90
2018-08-08T10:54:48.490Z,37.60
2018-08-08T10:57:18.078Z,37.88
2018-08-08T10:59:45.120Z,36.86
2018-08-08T11:02:12.070Z,37.80
2018-08-08T11:04:40.022Z,37.44
2018-08-08T11:07:07.013Z,36.80
2018-08-08T11:09:33.945Z,36.93
2018-08-08T11:12:00.918Z,36.44
2018-08-08T11:14:27.866Z,37.35
2018-08-08T11:16:54.859Z,37.91
2018-08-08T11:19:21.857Z,38.28
2018-08-08T11:21:48.863Z,37.98
2018-08-08T11:24:15.771Z,37.11
2018-08-08T11:26:43.483Z,37.86
2018-08-08T11:29:21.530Z,37.98
2018-08-08T11:31:48.427Z,37.54
2018-08-08T11:34:15.385Z,37.39
2018-08-08T11:36:42.345Z,37.60
2018-08-08T11:39:10.731Z,38.32
2018-08-08T11:41:37.674Z,38.00
2018-08-08T11:44:04.594Z,36.95
2018-08-08T11:46:31.574Z,37.74
2018-08-08T11:48:58.479Z,38.13
2018-08-08T11:51:25.450Z,37.50
2018-08-08T11:53:52.444Z,37.96
2018-08-08T11:56:19.322Z,37.74
2018-08-08T11:58:46.986Z,37.39
2018-08-08T12:01:14.027Z,36.83
2018-08-08T12:03:42.464Z,37.82
2018-08-08T12:06:09.135Z,37.63
2018-08-08T12:08:36.817Z,38.31
2018-08-08T12:11:05.644Z,39.31
2018-08-08T12:13:33.767Z,39.36
2018-08-08T12:16:01.907Z,39.21
2018-08-08T12:18:28.905Z,38.83
2018-08-08T12:20:56.858Z,38.25
2018-08-08T12:23:25.581Z,38.20
2018-08-08T12:25:53.209Z,37.40
2018-08-08T12:28:20.976Z,37.68
2018-08-08T12:30:47.953Z,38.21
2018-08-08T12:33:15.835Z,37.36
2018-08-08T12:35:42.850Z,38.33
2018-08-08T12:38:10.774Z,37.17
2018-08-08T12:40:38.408Z,36.84
2018-08-08T12:43:05.499Z,37.54
2018-08-08T12:45:32.545Z,36.89
2018-08-08T12:48:00.307Z,35.60
2018-08-08T12:50:28.014Z,35.89
2018-08-08T12:53:00.401Z,34.31
2018-08-08T12:55:31.614Z,35.74
2018-08-08T12:57:59.805Z,36.54
2018-08-08T13:00:26.797Z,37.33
2018-08-08T13:02:54.032Z,37.70
2018-08-08T13:05:34.658Z,37.35
2018-08-08T13:08:09.373Z,36.82
2018-08-08T13:10:54.898Z,37.33
2018-08-08T13:13:31.756Z,36.41
2018-08-08T13:15:58.715Z,36.93
2018-08-08T13:18:25.630Z,37.15
2018-08-08T13:20:52.685Z,36.33
2018-08-08T13:23:20.795Z,35.60
2018-08-08T13:25:47.868Z,34.98
2018-08-08T13:28:14.953Z,35.29
2018-08-08T13:30:42.558Z,35.78
2018-08-08T13:33:08.930Z,37.09
2018-08-08T13:35:35.877Z,36.80
2018-08-08T13:38:02.842Z,37.28
2018-08-08T13:40:30.000Z,38.05
2018-08-08T13:43:13.414Z,38.44
2018-08-08T13:45:40.555Z,38.19
2018-08-08T13:48:07.518Z,38.40
2018-08-08T13:50:34.438Z,38.57
2018-08-08T13:53:01.422Z,39.74
2018-08-08T13:55:28.342Z,39.08
2018-08-08T13:57:55.366Z,39.67
2018-08-08T14:00:23.398Z,39.82
2018-08-08T14:02:50.339Z,39.47
2018-08-08T14:05:17.403Z,38.78
2018-08-08T14:07:46.362Z,39.25
2018-08-08T14:10:24.149Z,39.42
2018-08-08T14:12:51.109Z,38.77
2018-08-08T14:15:18.074Z,38.55
2018-08-08T14:17:46.098Z,40.04
2018-08-08T14:20:13.207Z,38.47
2018-08-08T14:22:40.352Z,39.00
2018-08-08T14:25:07.815Z,38.23
2018-08-08T14:27:34.900Z,38.85
2018-08-08T14:30:03.687Z,38.67
2018-08-08T14:32:32.302Z,39.07
2018-08-08T14:35:00.210Z,38.75
2018-08-08T14:37:27.256Z,39.53
2018-08-08T14:39:54.222Z,40.25
2018-08-08T14:42:24.709Z,39.25
2018-08-08T14:45:01.477Z,39.95
2018-08-08T14:47:37.414Z,40.23
2018-08-08T14:50:21.827Z,41.15
2018-08-08T14:52:48.743Z,39.90
2018-08-08T14:55:15.638Z,40.26
2018-08-08T14:57:42.613Z,39.52
2018-08-08T15:00:10.489Z,38.13
2018-08-08T15:02:37.583Z,36.56
2018-08-08T15:05:05.747Z,37.89
2018-08-08T15:07:32.722Z,37.79
2018-08-08T15:09:59.634Z,37.56
2018-08-08T15:12:26.581Z,38.67
2018-08-08T15:14:54.192Z,37.43
2018-08-08T15:17:21.161Z,37.84
2018-08-08T15:19:48.130Z,37.22
2018-08-08T15:22:15.087Z,37.92
2018-08-08T15:24:42.315Z,38.07
2018-08-08T15:27:11.526Z,38.30
2018-08-08T15:29:38.479Z,36.85
2018-08-08T15:32:06.028Z,37.32
2018-08-08T15:34:34.625Z,36.63
2018-08-08T15:37:01.764Z,37.33
2018-08-08T15:39:28.549Z,36.64
2018-08-08T15:41:55.522Z,36.69
2018-08-08T15:44:22.425Z,37.25
2018-08-08T15:46:49.306Z,37.83
2018-08-08T15:49:16.278Z,36.14
2018-08-08T15:51:43.259Z,34.98
2018-08-08T15:54:10.231Z,35.21
2018-08-08T15:56:37.348Z,37.11
2018-08-08T15:59:04.316Z,39.15
2018-08-08T16:01:32.436Z,37.70
2018-08-08T16:03:59.411Z,38.53
2018-08-08T16:06:26.333Z,38.44
2018-08-08T16:08:53.303Z,38.05
2018-08-08T16:11:20.406Z,38.16
2018-08-08T16:13:47.525Z,39.54
2018-08-08T16:16:14.559Z,39.50
2018-08-08T16:18:41.549Z,39.72
2018-08-08T16:21:08.631Z,39.02
2018-08-08T16:23:35.526Z,40.28
2018-08-08T16:26:02.532Z,40.40
2018-08-08T16:28:29.429Z,38.92
2018-08-08T16:30:56.398Z,39.72
2018-08-08T16:33:23.550Z,39.49
2018-08-08T16:35:58.391Z,38.88
2018-08-08T16:38:27.854Z,39.71
2018-08-08T16:40:54.765Z,39.19
2018-08-08T16:43:21.771Z,39.24
2018-08-08T16:45:49.719Z,38.97
2018-08-08T16:48:16.673Z,40.24
2018-08-08T16:50:44.016Z,40.36
2018-08-08T16:53:11.035Z,40.42
2018-08-08T16:55:38.099Z,39.64
2018-08-08T16:58:06.199Z,39.37
2018-08-08T17:00:35.223Z,40.80
2018-08-08T17:03:07.322Z,40.80
2018-08-08T17:05:35.698Z,40.90
2018-08-08T17:08:04.485Z,41.11
2018-08-08T17:10:32.542Z,40.81
2018-08-08T17:13:01.158Z,40.19
2018-08-08T17:15:29.799Z,40.16
2018-08-08T17:18:01.792Z,41.36
2018-08-08T17:20:38.288Z,41.69
2018-08-08T17:23:14.533Z,43.20
2018-08-08T17:25:42.236Z,42.98
2018-08-08T17:28:09.722Z,42.28
2018-08-08T17:30:36.673Z,43.41
2018-08-08T17:33:03.693Z,43.74
2018-08-08T17:35:30.647Z,43.42
2018-08-08T17:37:58.178Z,43.72
2018-08-08T17:40:26.091Z,43.82
2018-08-08T17:42:53.106Z,43.02
2018-08-08T17:45:19.998Z,43.76
2018-08-08T17:47:46.930Z,44.67
2018-08-08T17:50:13.843Z,44.89
2018-08-08T17:52:42.154Z,45.56
2018-08-08T17:55:09.082Z,45.28
2018-08-08T17:57:36.047Z,46.16
2018-08-08T18:00:03.766Z,45.61
2018-08-08T18:02:30.650Z,46.45
2018-08-08T18:04:58.307Z,46.05
2018-08-08T18:07:26.173Z,46.49
2018-08-08T18:09:53.030Z,46.87
2018-08-08T18:12:19.938Z,46.83
2018-08-08T18:14:54.810Z,46.56
2018-08-08T18:17:31.281Z,47.20
2018-08-08T18:19:58.872Z,47.90
2018-08-08T18:22:38.412Z,48.25
2018-08-08T18:25:13.146Z,48.45
2018-08-08T18:27:40.088Z,49.18
2018-08-08T18:30:08.754Z,48.96
2018-08-08T18:32:37.588Z,49.35
2018-08-08T18:35:10.166Z,49.47
2018-08-08T18:37:39.019Z,48.34
2018-08-08T18:40:10.432Z,49.03
2018-08-08T18:42:38.414Z,49.38
2018-08-08T18:45:05.354Z,48.78
2018-08-08T18:47:32.376Z,49.39
2018-08-08T18:49:59.300Z,48.76
2018-08-08T18:52:26.251Z,48.85
2018-08-08T18:54:53.186Z,48.39
2018-08-08T18:57:20.570Z,49.12
2018-08-08T18:59:48.242Z,49.31
2018-08-08T19:02:15.782Z,49.51
2018-08-08T19:04:42.753Z,49.25
2018-08-08T19:07:09.714Z,49.27
2018-08-08T19:09:36.718Z,50.07
2018-08-08T19:12:03.633Z,49.43
2018-08-08T19:14:30.609Z,49.71
2018-08-08T19:16:57.566Z,49.82
2018-08-08T19:19:24.558Z,51.21
2018-08-08T19:21:51.494Z,50.63
2018-08-08T19:24:18.414Z,50.22
2018-08-08T19:26:45.578Z,49.86
2018-08-08T19:29:13.555Z,50.58
2018-08-08T19:31:40.523Z,50.71
2018-08-08T19:34:07.461Z,50.45
2018-08-08T19:36:35.249Z,51.42
2018-08-08T19:39:03.446Z,51.95
2018-08-08T19:41:30.397Z,51.24
2018-08-08T19:43:57.353Z,51.12
2018-08-08T19:46:24.341Z,50.92
2018-08-08T19:48:51.328Z,49.28
2018-08-08T19:51:18.838Z,51.04
2018-08-08T19:53:45.798Z,52.11
2018-08-08T19:56:12.759Z,52.65
2018-08-08T19:58:39.705Z,52.88
2018-08-08T20:01:06.678Z,53.76
2018-08-08T20:03:33.629Z,52.31
2018-08-08T20:06:00.554Z,53.85
2018-08-08T20:08:28.385Z,53.24
2018-08-08T20:10:56.350Z,53.37
2018-08-08T20:13:23.379Z,54.37
2018-08-08T20:15:52.014Z,54.56
2018-08-08T20:18:18.960Z,54.18
2018-08-08T20:20:45.939Z,54.29
2018-08-08T20:23:12.979Z,54.61
2018-08-08T20:25:40.011Z,54.83
2018-08-08T20:28:06.914Z,55.05
2018-08-08T20:30:50.513Z,54.84
2018-08-08T20:33:24.058Z,54.63
2018-08-08T20:35:51.009Z,54.73
2018-08-08T20:38:18.477Z,56.58
2018-08-08T20:40:47.762Z,55.77
2018-08-08T20:43:17.876Z,55.93
2018-08-08T20:45:44.811Z,55.29
2018-08-08T20:48:11.759Z,55.62
2018-08-08T20:50:38.714Z,56.16
2018-08-08T20:53:06.660Z,57.17
2018-08-08T20:55:33.637Z,57.01
2018-08-08T20:58:00.698Z,58.17
2018-08-08T21:00:27.639Z,58.39
2018-08-08T21:03:02.138Z,59.03
2018-08-08T21:05:32.270Z,58.26
2018-08-08T21:08:03.149Z,58.52
2018-08-08T21:10:30.893Z,59.21
2018-08-08T21:13:05.217Z,57.38
2018-08-08T21:15:32.142Z,58.29
2018-08-08T21:18:00.115Z,59.43
2018-08-08T21:20:27.061Z,60.39
2018-08-08T21:22:54.031Z,59.50
2018-08-08T21:25:20.981Z,60.20
2018-08-08T21:27:48.021Z,59.13
2018-08-08T21:30:16.056Z,59.63
2018-08-08T21:32:46.417Z,59.40
2018-08-08T21:35:23.382Z,59.08
2018-08-08T21:37:50.330Z,58.68
2018-08-08T21:40:17.346Z,60.23
2018-08-08T21:42:44.261Z,59.65
2018-08-08T21:45:11.205Z,60.23
2018-08-08T21:47:38.129Z,61.73
2018-08-08T21:50:05.823Z,63.34
2018-08-08T21:52:32.791Z,64.61
2018-08-08T21:55:11.514Z,64.71
2018-08-08T21:57:50.805Z,63.96
2018-08-08T22:00:29.376Z,63.38
2018-08-08T22:03:08.174Z,63.63
2018-08-08T22:05:47.714Z,63.54
2018-08-08T22:08:26.238Z,63.70
2018-08-08T22:11:19.178Z,63.61
2018-08-08T22:13:57.626Z,63.77
2018-08-08T22:16:37.258Z,63.36
2018-08-08T22:19:23.901Z,62.41
2018-08-08T22:21:51.031Z,62.67
2018-08-08T22:24:18.005Z,61.95
2018-08-08T22:26:44.954Z,62.39
2018-08-08T22:29:12.735Z,62.43
2018-08-08T22:31:40.045Z,62.44
2018-08-08T22:34:06.982Z,62.50
2018-08-08T22:36:33.919Z,61.86
2018-08-08T22:39:00.896Z,62.35
2018-08-08T22:41:27.850Z,62.33
2018-08-08T22:43:55.389Z,63.34
2018-08-08T22:46:22.374Z,64.03
2018-08-08T22:48:49.308Z,64.06
2018-08-08T22:51:16.275Z,63.58
2018-08-08T22:53:43.237Z,63.90
2018-08-08T22:56:10.189Z,64.37
2018-08-08T22:58:37.114Z,66.14
2018-08-08T23:01:04.943Z,65.91
2018-08-08T23:03:32.417Z,66.47
2018-08-08T23:05:59.358Z,66.05
2018-08-08T23:08:29.387Z,67.13
2018-08-08T23:10:56.376Z,67.05
2018-08-08T23:13:23.919Z,66.58
2018-08-08T23:15:50.854Z,66.99
2018-08-08T23:18:17.813Z,66.13
2018-08-08T23:20:44.781Z,67.03
2018-08-08T23:23:12.757Z,66.15
2018-08-08T23:25:40.465Z,67.29
2018-08-08T23:28:15.877Z,67.28
2018-08-08T23:30:45.853Z,67.25
2018-08-08T23:33:12.778Z,68.38
2018-08-08T23:35:39.770Z,67.67
2018-08-08T23:38:06.698Z,67.06
2018-08-08T23:40:34.509Z,67.65
2018-08-08T23:43:02.001Z,66.48
2018-08-08T23:45:28.975Z,63.33
2018-08-08T23:47:55.865Z,66.35
2018-08-08T23:50:22.833Z,67.64
2018-08-08T23:53:21.005Z,67.09
2018-08-08T23:55:47.982Z,66.75
2018-08-08T23:58:14.950Z,66.31
